Time;durP1;ratioP1;P1;durP2;ratioP2;P2;SDS_P1;SDS_P2;PMS_P1;PMS_P2;Temp;Humidity;BMP_temperature;BMP_pressure;BME280_temperature;BME280_humidity;BME280_pressure;Samples;Min_cycle;Max_cycle;Signal;HPM_P1;HPM_P2
2023/10/08 00:03:48;;;;;;;5.47;3.50;;;21.20;27.70;;;;;;10431216;28;20996;-78
2023/10/08 00:08:59;;;;;;;6.87;3.40;;;21.20;27.60;;;;;;10421186;28;20344;-79
2023/10/08 00:14:05;;;;;;;3.87;3.03;;;21.20;27.60;;;;;;10426986;28;21919;-79
2023/10/08 00:19:12;;;;;;;4.00;3.40;;;21.20;27.80;;;;;;10428073;28;20316;-78
2023/10/08 00:24:19;;;;;;;4.37;3.53;;;21.10;27.70;;;;;;10428522;28;20224;-79
2023/10/08 00:29:22;;;;;;;4.10;3.13;;;21.10;27.50;;;;;;10399214;28;20247;-79
2023/10/08 00:34:27;;;;;;;5.60;3.50;;;21.10;27.60;;;;;;10429749;28;20601;-79
2023/10/08 00:39:34;;;;;;;5.90;3.37;;;21.10;27.60;;;;;;10430760;28;20229;-79
2023/10/08 00:44:47;;;;;;;3.80;3.40;;;21.10;27.50;;;;;;10423069;28;20225;-79
2023/10/08 00:50:07;;;;;;;5.43;3.43;;;21.10;27.60;;;;;;10432357;28;20308;-76
2023/10/08 00:55:21;;;;;;;4.87;3.60;;;21.10;27.60;;;;;;10428386;28;20315;-76
2023/10/08 01:00:33;;;;;;;4.93;3.53;;;21.00;27.50;;;;;;10422820;28;20233;-75
2023/10/08 01:05:46;;;;;;;4.20;3.67;;;20.90;27.50;;;;;;10427892;28;20272;-78
2023/10/08 01:11:00;;;;;;;3.63;3.20;;;20.90;27.60;;;;;;10426964;28;20319;-79
2023/10/08 01:16:05;;;;;;;5.07;3.50;;;20.90;27.30;;;;;;10420532;28;20239;-78
2023/10/08 01:21:18;;;;;;;4.27;3.13;;;20.90;27.50;;;;;;10424935;28;20233;-78
2023/10/08 01:26:22;;;;;;;4.80;3.83;;;20.90;27.40;;;;;;10426040;28;20732;-79
2023/10/08 01:31:26;;;;;;;4.23;3.20;;;20.90;27.30;;;;;;10430725;28;20240;-76
2023/10/08 01:36:31;;;;;;;4.00;2.80;;;20.90;27.30;;;;;;10429559;28;20224;-75
2023/10/08 01:41:40;;;;;;;5.17;3.30;;;21.00;27.40;;;;;;10428887;28;20220;-76
2023/10/08 01:46:45;;;;;;;4.53;3.13;;;21.00;27.20;;;;;;10419293;28;20232;-79
2023/10/08 01:51:49;;;;;;;5.07;3.50;;;21.00;27.30;;;;;;10424138;28;20233;-79
2023/10/08 01:56:53;;;;;;;4.60;3.60;;;21.00;27.30;;;;;;10426130;28;20232;-79
2023/10/08 02:01:57;;;;;;;7.23;3.80;;;21.00;27.30;;;;;;10434023;28;20241;-79
2023/10/08 02:07:00;;;;;;;4.53;3.30;;;21.00;27.50;;;;;;10431352;28;20828;-79
2023/10/08 02:12:05;;;;;;;5.17;3.73;;;21.00;27.50;;;;;;10426194;28;20225;-78
2023/10/08 02:17:09;;;;;;;5.03;3.43;;;21.00;27.40;;;;;;10426891;28;20695;-79
2023/10/08 02:22:13;;;;;;;5.37;3.40;;;21.00;27.60;;;;;;10432725;28;20220;-79
2023/10/08 02:27:17;;;;;;;5.03;3.17;;;21.00;27.50;;;;;;10436296;28;20232;-78
2023/10/08 02:32:23;;;;;;;5.27;3.27;;;21.00;27.50;;;;;;10426758;28;20221;-79
2023/10/08 02:37:28;;;;;;;5.23;3.50;;;21.00;27.50;;;;;;10426029;28;20254;-76
2023/10/08 02:42:33;;;;;;;6.30;3.30;;;21.00;27.50;;;;;;10431591;28;20723;-76
2023/10/08 02:47:37;;;;;;;4.60;2.93;;;21.00;27.50;;;;;;10430587;28;20299;-78
2023/10/08 02:52:40;;;;;;;3.80;3.20;;;21.00;27.60;;;;;;10433354;28;20309;-76
2023/10/08 02:57:45;;;;;;;4.37;3.20;;;21.00;27.60;;;;;;10432826;28;20619;-75
2023/10/08 03:02:49;;;;;;;5.23;3.47;;;20.90;27.50;;;;;;10428649;28;20221;-75
2023/10/08 03:07:53;;;;;;;4.60;3.50;;;20.90;27.50;;;;;;10425648;28;20359;-76
2023/10/08 03:13:03;;;;;;;4.10;3.27;;;20.90;27.60;;;;;;10428210;28;20977;-76
2023/10/08 03:18:10;;;;;;;4.30;3.43;;;20.90;27.60;;;;;;10427611;28;20225;-78
2023/10/08 03:23:23;;;;;;;3.80;3.37;;;20.90;27.60;;;;;;10430980;28;20313;-76
2023/10/08 03:28:29;;;;;;;5.33;3.83;;;20.90;27.70;;;;;;10426099;28;20604;-79
2023/10/08 03:33:34;;;;;;;4.17;3.43;;;20.80;27.60;;;;;;10429986;28;20225;-79
2023/10/08 03:38:51;;;;;;;4.53;3.10;;;20.80;27.70;;;;;;10428261;28;20733;-78
2023/10/08 03:44:01;;;;;;;5.60;3.53;;;20.70;27.60;;;;;;10429061;28;20228;-76
2023/10/08 03:49:06;;;;;;;4.90;3.60;;;20.70;27.60;;;;;;10434688;28;20307;-79
2023/10/08 03:54:20;;;;;;;5.17;3.50;;;20.70;27.70;;;;;;10428281;28;20261;-76
2023/10/08 03:59:34;;;;;;;4.93;3.13;;;20.60;27.60;;;;;;10425860;28;20256;-76
2023/10/08 04:04:50;;;;;;;6.37;3.67;;;20.60;27.70;;;;;;10423943;28;20276;-76
2023/10/08 04:10:05;;;;;;;6.40;3.23;;;20.60;27.70;;;;;;10430596;28;20236;-76
2023/10/08 04:15:12;;;;;;;5.00;3.80;;;20.60;27.60;;;;;;10423327;28;20216;-76
2023/10/08 04:25:34;;;;;;;4.90;3.50;;;20.60;27.90;;;;;;10426155;28;20325;-79
2023/10/08 04:30:41;;;;;;;5.13;3.40;;;20.60;27.80;;;;;;10426953;28;20847;-79
2023/10/08 04:35:51;;;;;;;3.20;2.80;;;20.60;27.90;;;;;;10424824;28;20247;-78
2023/10/08 04:41:01;;;;;;;5.17;3.27;;;20.50;28.00;;;;;;10425337;28;20257;-78
2023/10/08 04:46:18;;;;;;;4.17;3.50;;;20.50;28.20;;;;;;10426637;28;20221;-79
2023/10/08 04:51:22;;;;;;;5.87;3.50;;;20.30;28.10;;;;;;10429542;28;20286;-79
2023/10/08 04:56:28;;;;;;;4.73;3.23;;;20.20;28.10;;;;;;10426641;28;20225;-79
2023/10/08 05:01:47;;;;;;;4.93;3.40;;;20.10;28.20;;;;;;10424449;28;20235;-76
2023/10/08 05:07:17;;;;;;;4.50;3.53;;;20.00;28.50;;;;;;10430756;28;20730;-79
2023/10/08 05:12:37;;;;;;;4.93;3.20;;;20.00;28.40;;;;;;10426694;28;20260;-79
2023/10/08 05:17:56;;;;;;;4.73;3.43;;;19.90;28.70;;;;;;10428017;28;20245;-79
2023/10/08 05:23:20;;;;;;;5.70;4.50;;;19.80;29.00;;;;;;10430843;28;20261;-76
2023/10/08 05:28:25;;;;;;;6.43;5.17;;;19.80;28.80;;;;;;10429384;28;20235;-79
2023/10/08 05:33:59;;;;;;;8.47;5.60;;;19.70;28.70;;;;;;10437052;28;20270;-79
2023/10/08 05:39:00;;;;;;;6.23;4.07;;;19.60;28.80;;;;;;10441232;28;20251;-79
2023/10/08 05:44:23;;;;;;;4.80;3.80;;;19.50;28.70;;;;;;10442121;28;20225;-78
2023/10/08 05:49:54;;;;;;;5.23;3.70;;;19.40;29.10;;;;;;10438997;28;20244;-79
2023/10/08 05:55:25;;;;;;;5.43;3.90;;;19.40;29.10;;;;;;10442524;28;20220;-80
2023/10/08 06:06:07;;;;;;;5.53;3.50;;;19.30;29.20;;;;;;10444189;28;20221;-79
2023/10/08 06:11:27;;;;;;;6.83;3.40;;;19.40;29.50;;;;;;10437550;28;20835;-76
2023/10/08 06:16:41;;;;;;;4.67;3.40;;;19.40;29.30;;;;;;10434359;28;20694;-79
2023/10/08 06:21:46;;;;;;;4.63;3.27;;;19.40;29.40;;;;;;10442022;28;20651;-78
2023/10/08 06:26:49;;;;;;;7.53;3.70;;;19.40;29.40;;;;;;10434971;28;20233;-79
2023/10/08 06:31:55;;;;;;;5.37;3.60;;;19.40;29.50;;;;;;10440860;28;20287;-75
2023/10/08 06:37:01;;;;;;;3.90;3.27;;;19.50;29.60;;;;;;10441374;28;20591;-79
2023/10/08 06:42:07;;;;;;;5.13;3.23;;;19.50;29.70;;;;;;10432782;28;20224;-79
2023/10/08 06:47:10;;;;;;;6.23;3.83;;;19.50;29.60;;;;;;10436732;28;20252;-74
2023/10/08 06:52:15;;;;;;;3.67;3.17;;;19.60;29.60;;;;;;10434135;28;20235;-76
2023/10/08 06:57:20;;;;;;;7.33;3.63;;;19.60;29.60;;;;;;10426333;28;20317;-76
2023/10/08 07:02:26;;;;;;;5.03;3.63;;;19.70;29.60;;;;;;10433025;28;20639;-76
2023/10/08 07:07:32;;;;;;;6.40;3.43;;;19.80;29.70;;;;;;10429874;28;20236;-75
2023/10/08 07:12:35;;;;;;;4.23;3.30;;;19.70;29.80;;;;;;10426966;28;20228;-76
2023/10/08 07:17:40;;;;;;;7.77;3.57;;;19.70;29.60;;;;;;10413344;28;20248;-74
2023/10/08 07:22:45;;;;;;;6.50;3.70;;;19.80;29.70;;;;;;10431385;28;20232;-74
2023/10/08 07:27:49;;;;;;;4.20;3.17;;;19.80;29.80;;;;;;10428239;28;20712;-74
2023/10/08 07:32:54;;;;;;;7.47;3.60;;;19.90;29.70;;;;;;10427161;28;20344;-74
2023/10/08 07:37:58;;;;;;;5.67;3.40;;;19.90;29.80;;;;;;10428165;28;20312;-74
2023/10/08 07:43:08;;;;;;;4.43;3.27;;;20.00;29.90;;;;;;10424585;28;20581;-77
2023/10/08 07:48:15;;;;;;;4.07;3.30;;;20.10;29.90;;;;;;10424051;28;20233;-77
2023/10/08 07:53:19;;;;;;;4.73;3.37;;;20.10;29.70;;;;;;10422831;28;20229;-77
2023/10/08 07:58:23;;;;;;;6.63;3.73;;;20.20;29.90;;;;;;10425790;28;20904;-75
2023/10/08 08:03:26;;;;;;;8.00;3.90;;;20.30;29.70;;;;;;10428134;28;20241;-78
2023/10/08 08:08:33;;;;;;;8.27;3.53;;;20.40;29.80;;;;;;10427969;28;20240;-78
2023/10/08 08:13:36;;;;;;;7.87;4.40;;;20.40;30.00;;;;;;10423816;28;20233;-79
2023/10/08 08:18:40;;;;;;;5.97;3.60;;;20.40;29.80;;;;;;10425787;28;20332;-78
2023/10/08 08:23:47;;;;;;;5.50;3.93;;;20.50;30.00;;;;;;10420912;28;20233;-75
2023/10/08 08:28:51;;;;;;;5.83;3.73;;;20.50;30.00;;;;;;10420528;28;20851;-74
2023/10/08 08:33:56;;;;;;;4.53;3.50;;;20.60;30.20;;;;;;10429277;28;20239;-74
2023/10/08 08:39:04;;;;;;;6.37;3.70;;;20.70;30.10;;;;;;10418002;28;20580;-74
2023/10/08 08:44:08;;;;;;;5.80;3.37;;;21.00;29.90;;;;;;10423367;28;20224;-78
2023/10/08 08:49:12;;;;;;;4.63;3.20;;;21.20;29.80;;;;;;10419499;28;20233;-78
2023/10/08 08:54:17;;;;;;;5.73;3.70;;;21.30;29.50;;;;;;10422622;28;20711;-77
2023/10/08 08:59:21;;;;;;;5.37;3.47;;;21.50;29.60;;;;;;10425913;28;20231;-75
2023/10/08 09:04:37;;;;;;;5.50;3.13;;;21.50;29.30;;;;;;10405742;28;20584;-76
2023/10/08 09:09:44;;;;;;;3.93;3.23;;;21.60;29.60;;;;;;10415752;28;20235;-77
2023/10/08 09:14:48;;;;;;;4.87;3.30;;;21.70;29.60;;;;;;10414571;28;20236;-77
2023/10/08 09:19:54;;;;;;;5.30;3.23;;;21.80;29.20;;;;;;10430231;28;20233;-77
2023/10/08 09:24:59;;;;;;;6.00;3.57;;;21.90;28.90;;;;;;10420564;28;20298;-77
2023/10/08 09:30:08;;;;;;;5.43;3.40;;;22.00;28.80;;;;;;10408965;28;20232;-75
2023/10/08 09:35:13;;;;;;;5.40;3.60;;;22.10;28.80;;;;;;10422459;28;20233;-77
2023/10/08 09:40:21;;;;;;;4.40;3.53;;;22.10;29.00;;;;;;10421631;28;20225;-77
2023/10/08 09:45:24;;;;;;;5.07;3.30;;;22.20;29.00;;;;;;10429516;28;20228;-77
2023/10/08 09:50:29;;;;;;;4.67;3.50;;;22.20;28.80;;;;;;10457510;28;20233;-76
2023/10/08 09:55:34;;;;;;;8.70;3.50;;;22.30;28.50;;;;;;10431500;28;20221;-76
2023/10/08 10:00:38;;;;;;;5.10;3.07;;;22.30;28.50;;;;;;10418468;28;20221;-75
2023/10/08 10:05:44;;;;;;;4.63;3.37;;;22.20;28.80;;;;;;10427179;28;20224;-75
2023/10/08 10:10:59;;;;;;;4.10;3.20;;;22.20;28.70;;;;;;10430993;28;20237;-75
2023/10/08 10:16:02;;;;;;;4.10;3.23;;;22.20;28.90;;;;;;10421902;28;21502;-78
2023/10/08 10:21:30;;;;;;;4.73;3.30;;;22.20;28.70;;;;;;10426599;28;20291;-79
2023/10/08 10:26:40;;;;;;;6.10;3.20;;;22.20;28.40;;;;;;10451801;28;20742;-79
2023/10/08 10:31:46;;;;;;;5.23;3.40;;;22.20;28.60;;;;;;10450820;28;20605;-80
2023/10/08 10:36:58;;;;;;;4.60;3.30;;;22.20;28.70;;;;;;10451403;28;20261;-80
2023/10/08 10:42:06;;;;;;;5.23;2.70;;;22.20;28.60;;;;;;10457839;28;20267;-80
2023/10/08 10:47:28;;;;;;;5.03;3.43;;;22.10;28.60;;;;;;10442564;28;20225;-80
2023/10/08 10:52:32;;;;;;;5.97;3.00;;;22.10;28.80;;;;;;10434787;28;20229;-79
2023/10/08 10:57:41;;;;;;;7.83;3.10;;;22.10;28.80;;;;;;10437671;28;20232;-79
2023/10/08 11:02:48;;;;;;;4.30;3.30;;;22.10;28.80;;;;;;10438102;28;20227;-80
2023/10/08 11:07:54;;;;;;;4.10;3.10;;;22.10;28.70;;;;;;10429666;28;20237;-79
2023/10/08 11:13:01;;;;;;;3.93;3.23;;;22.10;28.70;;;;;;10419800;28;20257;-79
2023/10/08 11:18:09;;;;;;;6.57;3.10;;;22.20;28.60;;;;;;10413079;28;20216;-79
2023/10/08 11:23:33;;;;;;;5.07;3.40;;;22.20;28.50;;;;;;10425468;28;20233;-78
2023/10/08 11:28:41;;;;;;;4.33;3.20;;;22.20;28.70;;;;;;10420382;28;20233;-79
2023/10/08 11:33:53;;;;;;;4.80;3.23;;;22.30;28.80;;;;;;10415451;28;20232;-79
2023/10/08 11:39:02;;;;;;;4.57;3.27;;;22.30;29.00;;;;;;10416788;28;20253;-78
2023/10/08 11:44:13;;;;;;;7.00;3.67;;;22.40;28.90;;;;;;10411521;28;20271;-79
2023/10/08 11:49:18;;;;;;;7.03;4.00;;;22.40;28.90;;;;;;10420933;28;20316;-79
2023/10/08 11:54:23;;;;;;;10.43;7.27;;;22.30;28.90;;;;;;10416216;28;20243;-79
2023/10/08 11:59:29;;;;;;;6.47;4.50;;;22.30;28.90;;;;;;10411506;28;20329;-78
2023/10/08 12:04:32;;;;;;;5.77;3.73;;;22.30;28.80;;;;;;10412657;28;21120;-75
2023/10/08 12:09:38;;;;;;;6.10;3.60;;;22.30;28.90;;;;;;10427890;28;20259;-80
2023/10/08 12:14:45;;;;;;;4.93;3.50;;;22.30;29.00;;;;;;10423177;28;20244;-75
2023/10/08 12:19:52;;;;;;;6.40;3.30;;;22.30;29.00;;;;;;10419838;28;20225;-75
2023/10/08 12:24:55;;;;;;;6.93;3.40;;;22.30;29.10;;;;;;10423959;28;20232;-74
2023/10/08 12:30:00;;;;;;;4.57;3.17;;;22.30;29.80;;;;;;10417946;28;20260;-75
2023/10/08 12:35:04;;;;;;;5.70;3.20;;;22.30;29.10;;;;;;10419524;28;20601;-76
2023/10/08 12:40:17;;;;;;;5.73;3.90;;;22.40;29.20;;;;;;10425230;28;20232;-74
2023/10/08 12:45:27;;;;;;;5.03;3.53;;;22.50;29.10;;;;;;10418232;28;20366;-75
2023/10/08 12:50:42;;;;;;;4.27;3.23;;;22.60;29.20;;;;;;10423747;28;20252;-75
2023/10/08 12:55:46;;;;;;;4.70;3.50;;;22.70;29.00;;;;;;10418727;28;20658;-75
2023/10/08 13:00:57;;;;;;;6.63;3.70;;;22.80;28.90;;;;;;10413896;28;20225;-78
2023/10/08 13:06:04;;;;;;;6.93;3.60;;;22.90;28.90;;;;;;10421671;28;20658;-79
2023/10/08 13:11:08;;;;;;;6.37;3.57;;;22.90;29.40;;;;;;10422694;28;20231;-78
2023/10/08 13:16:12;;;;;;;5.67;3.70;;;22.90;28.70;;;;;;10423083;28;20305;-77
2023/10/08 13:21:16;;;;;;;6.90;3.60;;;22.90;28.70;;;;;;10421461;28;20233;-77
2023/10/08 13:26:22;;;;;;;6.60;3.23;;;23.00;28.90;;;;;;10418673;28;20754;-79
2023/10/08 13:31:29;;;;;;;9.20;4.00;;;23.00;29.10;;;;;;10421545;28;20229;-79
2023/10/08 13:36:33;;;;;;;5.60;3.77;;;23.00;29.10;;;;;;10424024;28;20403;-78
2023/10/08 13:41:38;;;;;;;5.97;3.80;;;23.10;29.10;;;;;;10426966;28;20300;-78
2023/10/08 13:46:48;;;;;;;5.43;3.30;;;23.20;29.00;;;;;;10420777;28;20260;-78
2023/10/08 13:51:56;;;;;;;4.87;3.03;;;23.20;29.10;;;;;;10424577;28;20249;-78
2023/10/08 13:57:01;;;;;;;6.70;3.77;;;23.30;29.20;;;;;;10426265;28;20229;-74
2023/10/08 14:02:14;;;;;;;6.67;3.97;;;23.40;29.10;;;;;;10428292;28;20655;-74
2023/10/08 14:07:18;;;;;;;8.43;3.50;;;23.40;28.90;;;;;;10430013;28;20233;-74
2023/10/08 14:12:21;;;;;;;6.60;3.60;;;23.50;29.00;;;;;;10435834;28;20217;-74
2023/10/08 14:17:42;;;;;;;8.07;3.67;;;23.50;28.90;;;;;;10434883;28;20612;-74
2023/10/08 14:22:47;;;;;;;3.93;3.23;;;23.50;29.20;;;;;;10435123;28;20224;-75
2023/10/08 14:27:52;;;;;;;7.27;3.23;;;23.50;29.20;;;;;;10427416;28;20819;-74
2023/10/08 14:32:58;;;;;;;5.90;3.40;;;23.60;29.20;;;;;;10434091;28;20243;-75
2023/10/08 14:43:34;;;;;;;4.90;3.40;;;23.60;29.30;;;;;;10406340;28;20229;-75
2023/10/08 14:48:40;;;;;;;5.10;3.40;;;23.50;29.30;;;;;;10429007;28;20229;-75
2023/10/08 14:53:44;;;;;;;5.70;3.50;;;23.50;29.50;;;;;;10429387;28;20569;-75
2023/10/08 14:58:48;;;;;;;7.23;3.80;;;23.60;29.70;;;;;;10432640;28;20233;-75
2023/10/08 15:03:53;;;;;;;5.17;3.30;;;23.60;29.70;;;;;;10426673;28;20221;-75
2023/10/08 15:08:57;;;;;;;5.03;3.40;;;23.60;29.80;;;;;;10431175;28;20749;-75
2023/10/08 15:14:01;;;;;;;5.87;3.23;;;23.70;29.70;;;;;;10431624;28;20235;-75
2023/10/08 15:19:05;;;;;;;5.87;3.70;;;23.70;29.70;;;;;;10431587;28;20315;-76
2023/10/08 15:24:11;;;;;;;5.93;3.47;;;23.70;30.20;;;;;;10435737;28;20256;-75
2023/10/08 15:29:15;;;;;;;5.40;3.77;;;23.70;30.00;;;;;;10428036;28;20754;-75
2023/10/08 15:34:20;;;;;;;4.87;3.27;;;23.80;30.10;;;;;;10420848;28;20743;-75
2023/10/08 15:39:40;;;;;;;4.10;3.13;;;23.80;30.40;;;;;;10427667;28;20229;-77
2023/10/08 15:44:43;;;;;;;6.87;3.57;;;23.80;30.30;;;;;;10433076;28;20225;-75
2023/10/08 15:49:48;;;;;;;6.83;4.30;;;23.80;30.10;;;;;;10426435;28;20225;-74
2023/10/08 15:54:51;;;;;;;5.93;4.10;;;23.80;30.10;;;;;;10432662;28;20227;-75
2023/10/08 15:59:54;;;;;;;3.97;3.53;;;23.80;30.10;;;;;;10431506;28;20221;-75
2023/10/08 16:04:59;;;;;;;3.87;3.47;;;23.70;30.30;;;;;;10424370;28;20600;-75
2023/10/08 16:10:02;;;;;;;3.90;3.17;;;23.70;30.70;;;;;;10433542;28;20317;-77
2023/10/08 16:15:06;;;;;;;6.23;3.60;;;23.70;30.80;;;;;;10431549;28;20741;-76
2023/10/08 16:20:14;;;;;;;4.63;3.80;;;23.70;30.80;;;;;;10426993;28;20593;-75
2023/10/08 16:25:19;;;;;;;6.17;3.67;;;23.60;31.10;;;;;;10431275;28;20609;-74
2023/10/08 16:30:25;;;;;;;5.77;4.40;;;23.60;30.90;;;;;;10427731;28;20229;-78
2023/10/08 16:35:30;;;;;;;8.60;4.43;;;23.50;30.90;;;;;;10428044;28;20233;-77
2023/10/08 16:40:34;;;;;;;4.73;4.30;;;23.50;31.30;;;;;;10421971;28;20233;-77
2023/10/08 16:45:38;;;;;;;8.43;5.13;;;23.40;30.90;;;;;;10426054;28;20630;-77
2023/10/08 16:50:43;;;;;;;11.60;7.37;;;23.30;31.10;;;;;;10429616;28;20924;-77
2023/10/08 16:55:46;;;;;;;11.10;7.07;;;23.20;31.50;;;;;;10426190;28;20229;-77
2023/10/08 17:00:50;;;;;;;7.47;5.87;;;23.10;31.20;;;;;;10430740;28;20312;-77
2023/10/08 17:05:55;;;;;;;9.23;8.00;;;23.00;31.30;;;;;;10427427;28;20260;-77
2023/10/08 17:10:59;;;;;;;8.37;6.20;;;22.90;31.70;;;;;;10427876;28;20257;-77
2023/10/08 17:16:05;;;;;;;10.00;5.83;;;22.80;31.60;;;;;;10422695;28;20341;-77
2023/10/08 17:21:10;;;;;;;8.70;5.90;;;22.70;31.50;;;;;;10420844;28;20766;-77
2023/10/08 17:26:13;;;;;;;6.57;5.10;;;22.60;31.80;;;;;;10425591;28;20222;-79
2023/10/08 17:31:16;;;;;;;7.40;5.37;;;22.50;31.50;;;;;;10454090;28;20233;-80
2023/10/08 17:36:21;;;;;;;7.63;5.07;;;22.40;31.50;;;;;;10430655;28;20260;-75
2023/10/08 17:41:25;;;;;;;5.80;4.40;;;22.30;31.80;;;;;;10437142;28;20251;-79
2023/10/08 17:46:30;;;;;;;5.27;4.37;;;22.20;31.50;;;;;;10450909;28;20220;-80
2023/10/08 17:51:36;;;;;;;6.93;5.50;;;22.10;31.70;;;;;;10423113;28;20252;-75
2023/10/08 17:56:40;;;;;;;7.57;6.37;;;21.90;32.10;;;;;;10421512;28;20233;-75
2023/10/08 18:01:44;;;;;;;12.70;11.40;;;21.80;31.90;;;;;;10428142;28;20606;-76
2023/10/08 18:06:49;;;;;;;12.40;10.73;;;21.60;31.90;;;;;;10427996;28;20600;-76
2023/10/08 18:11:53;;;;;;;14.33;12.23;;;21.30;32.40;;;;;;10424320;28;20229;-75
2023/10/08 18:16:57;;;;;;;12.67;10.30;;;21.20;32.40;;;;;;10423397;28;20275;-75
2023/10/08 18:22:02;;;;;;;10.07;7.43;;;21.10;32.70;;;;;;10425881;28;20332;-76
2023/10/08 18:27:07;;;;;;;14.57;11.13;;;21.00;33.00;;;;;;10427700;28;20217;-76
2023/10/08 18:32:11;;;;;;;24.10;17.77;;;20.90;32.80;;;;;;10427936;28;20710;-75
2023/10/08 18:37:16;;;;;;;20.37;14.00;;;20.70;33.00;;;;;;10423403;28;20228;-75
2023/10/08 18:42:21;;;;;;;12.73;9.13;;;20.50;33.60;;;;;;10431040;28;20316;-75
2023/10/08 18:47:27;;;;;;;11.80;7.57;;;20.40;33.40;;;;;;10432509;28;20229;-75
2023/10/08 18:52:32;;;;;;;7.53;5.80;;;20.40;33.60;;;;;;10436568;28;20229;-75
2023/10/08 18:57:35;;;;;;;6.33;5.10;;;20.30;34.10;;;;;;10428259;28;20221;-74
2023/10/08 19:02:41;;;;;;;8.60;5.73;;;20.30;33.80;;;;;;10434511;28;20294;-75
2023/10/08 19:07:46;;;;;;;6.37;5.23;;;20.30;34.20;;;;;;10430664;28;20299;-75
2023/10/08 19:12:49;;;;;;;5.80;4.47;;;20.30;34.30;;;;;;10432198;28;20248;-80
2023/10/08 19:17:56;;;;;;;5.00;4.50;;;20.30;33.70;;;;;;10431460;28;20229;-80
2023/10/08 19:23:01;;;;;;;13.50;11.90;;;20.30;33.80;;;;;;10430755;28;20263;-79
2023/10/08 19:28:07;;;;;;;12.47;9.37;;;20.20;34.30;;;;;;10436366;28;20234;-75
2023/10/08 19:33:12;;;;;;;11.13;7.90;;;20.10;34.20;;;;;;10434122;28;20816;-75
2023/10/08 19:38:18;;;;;;;8.73;7.70;;;20.00;34.50;;;;;;10430353;28;20232;-75
2023/10/08 19:43:22;;;;;;;11.03;8.03;;;19.80;35.20;;;;;;10434350;28;20221;-75
2023/10/08 19:48:26;;;;;;;8.47;7.00;;;19.80;34.80;;;;;;10433995;28;20271;-78
2023/10/08 19:53:32;;;;;;;8.97;5.80;;;19.80;34.80;;;;;;10434663;28;20852;-79
2023/10/08 19:58:35;;;;;;;7.33;6.20;;;19.70;35.30;;;;;;10438036;28;20324;-80
2023/10/08 20:03:39;;;;;;;6.97;5.90;;;19.70;35.00;;;;;;10432328;28;21152;-80
2023/10/08 20:08:45;;;;;;;7.93;6.40;;;19.70;35.10;;;;;;10434729;28;20225;-76
2023/10/08 20:13:48;;;;;;;8.00;7.17;;;19.70;35.50;;;;;;10427876;28;20307;-80
2023/10/08 20:18:52;;;;;;;10.07;7.00;;;19.70;35.20;;;;;;10431757;28;20231;-80
2023/10/08 20:23:56;;;;;;;6.27;5.53;;;19.70;35.20;;;;;;10431101;28;20723;-78
2023/10/08 20:29:02;;;;;;;7.73;6.23;;;19.70;35.50;;;;;;10435232;28;20233;-80
2023/10/08 20:34:06;;;;;;;11.33;6.77;;;19.70;35.30;;;;;;10438134;28;20234;-80
2023/10/08 20:39:11;;;;;;;6.87;6.23;;;19.60;35.50;;;;;;10423907;28;20779;-76
2023/10/08 20:44:14;;;;;;;7.53;6.73;;;19.60;36.00;;;;;;10432887;28;20217;-80
2023/10/08 20:49:18;;;;;;;9.03;7.40;;;19.60;35.50;;;;;;10432712;28;20292;-76
2023/10/08 20:54:25;;;;;;;7.53;6.37;;;19.60;35.70;;;;;;10430664;28;20229;-75
2023/10/08 20:59:28;;;;;;;7.50;6.73;;;19.50;36.10;;;;;;10429118;28;20236;-80
2023/10/08 21:04:31;;;;;;;9.27;6.73;;;19.40;35.70;;;;;;10435913;28;20714;-78
2023/10/08 21:09:38;;;;;;;7.60;6.80;;;19.30;35.60;;;;;;10433689;28;20225;-78
2023/10/08 21:14:41;;;;;;;8.27;6.77;;;19.20;35.80;;;;;;10434744;28;20233;-78
2023/10/08 21:19:44;;;;;;;7.13;6.27;;;19.00;35.60;;;;;;10423539;28;20236;-77
2023/10/08 21:24:49;;;;;;;7.50;5.80;;;18.90;35.60;;;;;;10433771;28;20800;-78
2023/10/08 21:29:52;;;;;;;7.93;6.47;;;18.90;36.10;;;;;;10436010;28;20224;-78
2023/10/08 21:34:56;;;;;;;7.87;6.33;;;18.80;35.90;;;;;;10430289;28;20233;-78
2023/10/08 21:40:01;;;;;;;8.10;6.00;;;18.80;35.90;;;;;;10431740;28;20225;-78
2023/10/08 21:45:05;;;;;;;7.97;5.87;;;18.70;36.60;;;;;;10422252;28;20309;-77
2023/10/08 21:50:12;;;;;;;8.87;6.70;;;18.70;36.30;;;;;;10437358;28;20591;-78
2023/10/08 21:55:17;;;;;;;8.20;5.70;;;18.70;36.70;;;;;;10426545;28;20229;-78
2023/10/08 22:05:44;;;;;;;8.87;6.40;;;18.70;36.70;;;;;;10431279;28;20228;-78
2023/10/08 22:10:48;;;;;;;6.97;6.27;;;18.70;36.40;;;;;;10429827;28;20794;-78
2023/10/08 22:15:55;;;;;;;7.27;6.23;;;18.80;37.00;;;;;;10435176;28;20233;-78
2023/10/08 22:21:07;;;;;;;7.40;6.63;;;18.70;36.50;;;;;;10438600;28;20727;-75
2023/10/08 22:26:13;;;;;;;6.97;5.30;;;18.60;36.70;;;;;;10433517;28;20663;-78
2023/10/08 22:31:18;;;;;;;7.60;5.63;;;18.50;37.20;;;;;;10442514;28;20239;-78
2023/10/08 22:36:41;;;;;;;6.60;5.53;;;18.50;36.90;;;;;;10430342;28;20319;-74
2023/10/08 22:41:46;;;;;;;7.73;5.57;;;18.50;36.90;;;;;;10430998;28;20229;-74
2023/10/08 22:46:59;;;;;;;5.87;5.10;;;18.60;37.60;;;;;;10432422;28;20235;-78
2023/10/08 22:52:07;;;;;;;7.33;6.00;;;18.60;37.00;;;;;;10426368;28;20239;-75
2023/10/08 22:57:12;;;;;;;7.70;6.27;;;18.60;37.30;;;;;;10430578;28;20237;-75
2023/10/08 23:02:18;;;;;;;6.33;5.63;;;18.60;37.50;;;;;;10434253;28;20304;-75
2023/10/08 23:07:22;;;;;;;9.93;6.23;;;18.60;37.00;;;;;;10435196;28;20239;-75
2023/10/08 23:12:26;;;;;;;8.57;5.97;;;18.60;37.70;;;;;;10427142;28;20229;-78
2023/10/08 23:17:30;;;;;;;8.67;5.00;;;18.60;37.40;;;;;;10431798;28;20227;-78
2023/10/08 23:22:34;;;;;;;6.00;5.40;;;18.50;36.80;;;;;;10440885;28;20244;-78
2023/10/08 23:27:41;;;;;;;6.13;5.43;;;18.40;37.00;;;;;;10437116;28;20229;-75
2023/10/08 23:32:45;;;;;;;7.90;6.17;;;18.40;38.00;;;;;;10428258;28;20217;-74
2023/10/08 23:37:53;;;;;;;7.67;6.03;;;18.30;37.30;;;;;;10432236;28;20316;-74
2023/10/08 23:42:59;;;;;;;6.93;5.90;;;18.10;37.40;;;;;;10434322;28;20756;-75
2023/10/08 23:48:18;;;;;;;6.37;5.40;;;18.00;38.10;;;;;;10422816;28;20677;-76
2023/10/08 23:53:27;;;;;;;6.97;5.40;;;18.00;37.80;;;;;;10435034;28;20279;-76
2023/10/08 23:58:36;;;;;;;9.00;5.70;;;17.90;38.00;;;;;;10430851;28;20730;-75
